sensor_id;sensor_type;location;lat;lon;timestamp;temperature;humidity
72814;DHT22;60945;48.516;-2.768;2023-10-19T00:00:39;16.50;88.50
72814;DHT22;60945;48.516;-2.768;2023-10-19T00:03:06;16.50;88.80
72814;DHT22;60945;48.516;-2.768;2023-10-19T00:05:32;16.50;88.70
72814;DHT22;60945;48.516;-2.768;2023-10-19T00:07:59;16.50;88.60
72814;DHT22;60945;48.516;-2.768;2023-10-19T00:10:27;16.50;88.70
72814;DHT22;60945;48.516;-2.768;2023-10-19T00:13:03;16.40;88.90
72814;DHT22;60945;48.516;-2.768;2023-10-19T00:15:36;16.60;88.70
72814;DHT22;60945;48.516;-2.768;2023-10-19T00:18:06;16.60;88.50
72814;DHT22;60945;48.516;-2.768;2023-10-19T00:20:48;16.50;88.50
72814;DHT22;60945;48.516;-2.768;2023-10-19T00:23:19;16.60;87.70
72814;DHT22;60945;48.516;-2.768;2023-10-19T00:25:50;16.70;87.30
72814;DHT22;60945;48.516;-2.768;2023-10-19T00:28:20;16.60;87.60
72814;DHT22;60945;48.516;-2.768;2023-10-19T00:30:48;16.60;87.50
72814;DHT22;60945;48.516;-2.768;2023-10-19T00:33:15;16.60;87.60
72814;DHT22;60945;48.516;-2.768;2023-10-19T00:35:46;16.70;86.60
72814;DHT22;60945;48.516;-2.768;2023-10-19T00:38:38;16.70;86.50
72814;DHT22;60945;48.516;-2.768;2023-10-19T00:41:05;16.70;86.60
72814;DHT22;60945;48.516;-2.768;2023-10-19T00:43:40;16.70;86.70
72814;DHT22;60945;48.516;-2.768;2023-10-19T00:46:12;16.80;86.00
72814;DHT22;60945;48.516;-2.768;2023-10-19T00:48:56;16.80;85.90
72814;DHT22;60945;48.516;-2.768;2023-10-19T00:51:34;16.80;85.90
72814;DHT22;60945;48.516;-2.768;2023-10-19T00:54:05;16.80;85.80
72814;DHT22;60945;48.516;-2.768;2023-10-19T00:56:35;16.70;85.80
72814;DHT22;60945;48.516;-2.768;2023-10-19T00:59:01;16.70;86.40
72814;DHT22;60945;48.516;-2.768;2023-10-19T01:01:54;16.60;86.80
72814;DHT22;60945;48.516;-2.768;2023-10-19T01:04:24;16.70;86.20
72814;DHT22;60945;48.516;-2.768;2023-10-19T01:06:51;16.70;85.80
72814;DHT22;60945;48.516;-2.768;2023-10-19T01:09:35;16.60;86.10
72814;DHT22;60945;48.516;-2.768;2023-10-19T01:12:04;16.60;86.60
72814;DHT22;60945;48.516;-2.768;2023-10-19T01:20:13;16.60;86.00
72814;DHT22;60945;48.516;-2.768;2023-10-19T01:22:51;16.60;86.00
72814;DHT22;60945;48.516;-2.768;2023-10-19T01:25:31;16.60;86.00
72814;DHT22;60945;48.516;-2.768;2023-10-19T01:28:06;16.60;86.60
72814;DHT22;60945;48.516;-2.768;2023-10-19T01:30:33;16.60;86.90
72814;DHT22;60945;48.516;-2.768;2023-10-19T01:32:59;16.60;87.80
72814;DHT22;60945;48.516;-2.768;2023-10-19T01:35:25;16.60;88.80
72814;DHT22;60945;48.516;-2.768;2023-10-19T01:37:52;16.50;90.30
72814;DHT22;60945;48.516;-2.768;2023-10-19T01:40:18;16.40;91.50
72814;DHT22;60945;48.516;-2.768;2023-10-19T01:42:46;16.40;92.60
72814;DHT22;60945;48.516;-2.768;2023-10-19T01:45:12;16.30;93.60
72814;DHT22;60945;48.516;-2.768;2023-10-19T01:47:38;16.20;94.10
72814;DHT22;60945;48.516;-2.768;2023-10-19T01:50:06;16.20;94.50
72814;DHT22;60945;48.516;-2.768;2023-10-19T01:52:33;16.20;93.80
72814;DHT22;60945;48.516;-2.768;2023-10-19T01:54:58;16.20;92.40
72814;DHT22;60945;48.516;-2.768;2023-10-19T01:57:33;16.20;92.20
72814;DHT22;60945;48.516;-2.768;2023-10-19T02:00:00;16.20;91.70
72814;DHT22;60945;48.516;-2.768;2023-10-19T02:02:34;16.30;91.10
72814;DHT22;60945;48.516;-2.768;2023-10-19T02:05:03;16.30;90.60
72814;DHT22;60945;48.516;-2.768;2023-10-19T02:07:30;16.20;90.80
72814;DHT22;60945;48.516;-2.768;2023-10-19T02:09:56;16.20;90.10
72814;DHT22;60945;48.516;-2.768;2023-10-19T02:12:22;16.20;90.20
72814;DHT22;60945;48.516;-2.768;2023-10-19T02:14:48;16.20;90.40
72814;DHT22;60945;48.516;-2.768;2023-10-19T02:17:14;16.20;90.50
72814;DHT22;60945;48.516;-2.768;2023-10-19T02:19:40;16.20;90.20
72814;DHT22;60945;48.516;-2.768;2023-10-19T02:22:06;16.20;89.70
72814;DHT22;60945;48.516;-2.768;2023-10-19T02:24:37;16.20;89.50
72814;DHT22;60945;48.516;-2.768;2023-10-19T02:27:04;16.20;89.50
72814;DHT22;60945;48.516;-2.768;2023-10-19T02:29:30;16.10;89.60
72814;DHT22;60945;48.516;-2.768;2023-10-19T02:31:57;16.10;90.00
72814;DHT22;60945;48.516;-2.768;2023-10-19T02:34:23;16.10;89.40
72814;DHT22;60945;48.516;-2.768;2023-10-19T02:36:49;16.10;89.40
72814;DHT22;60945;48.516;-2.768;2023-10-19T02:39:15;16.10;89.20
72814;DHT22;60945;48.516;-2.768;2023-10-19T02:41:53;16.10;89.00
72814;DHT22;60945;48.516;-2.768;2023-10-19T02:44:20;16.10;89.40
72814;DHT22;60945;48.516;-2.768;2023-10-19T02:46:47;16.10;89.50
72814;DHT22;60945;48.516;-2.768;2023-10-19T02:49:15;16.10;90.00
72814;DHT22;60945;48.516;-2.768;2023-10-19T02:51:44;16.10;90.30
72814;DHT22;60945;48.516;-2.768;2023-10-19T02:54:11;16.20;90.00
72814;DHT22;60945;48.516;-2.768;2023-10-19T02:56:45;16.20;90.50
72814;DHT22;60945;48.516;-2.768;2023-10-19T02:59:19;16.20;91.40
72814;DHT22;60945;48.516;-2.768;2023-10-19T03:01:52;16.10;92.40
72814;DHT22;60945;48.516;-2.768;2023-10-19T03:04:18;16.00;93.00
72814;DHT22;60945;48.516;-2.768;2023-10-19T03:06:44;16.00;93.30
72814;DHT22;60945;48.516;-2.768;2023-10-19T03:09:09;16.00;93.40
72814;DHT22;60945;48.516;-2.768;2023-10-19T03:11:39;16.00;93.70
72814;DHT22;60945;48.516;-2.768;2023-10-19T03:14:11;15.90;93.60
72814;DHT22;60945;48.516;-2.768;2023-10-19T03:16:40;16.00;92.80
72814;DHT22;60945;48.516;-2.768;2023-10-19T03:19:08;16.10;92.80
72814;DHT22;60945;48.516;-2.768;2023-10-19T03:21:35;16.00;93.00
72814;DHT22;60945;48.516;-2.768;2023-10-19T03:24:14;16.00;93.00
72814;DHT22;60945;48.516;-2.768;2023-10-19T03:26:51;15.90;93.20
72814;DHT22;60945;48.516;-2.768;2023-10-19T03:29:19;15.90;93.40
72814;DHT22;60945;48.516;-2.768;2023-10-19T03:31:48;15.90;93.40
72814;DHT22;60945;48.516;-2.768;2023-10-19T03:34:14;15.90;93.50
72814;DHT22;60945;48.516;-2.768;2023-10-19T03:36:42;15.90;93.60
72814;DHT22;60945;48.516;-2.768;2023-10-19T03:39:08;15.90;93.60
72814;DHT22;60945;48.516;-2.768;2023-10-19T03:41:37;16.10;93.30
72814;DHT22;60945;48.516;-2.768;2023-10-19T03:44:05;16.00;94.10
72814;DHT22;60945;48.516;-2.768;2023-10-19T03:46:32;15.90;94.40
72814;DHT22;60945;48.516;-2.768;2023-10-19T03:49:03;15.90;94.80
72814;DHT22;60945;48.516;-2.768;2023-10-19T03:51:39;15.90;94.30
72814;DHT22;60945;48.516;-2.768;2023-10-19T03:54:27;15.80;94.20
72814;DHT22;60945;48.516;-2.768;2023-10-19T03:56:54;15.80;94.30
72814;DHT22;60945;48.516;-2.768;2023-10-19T03:59:26;15.70;94.30
72814;DHT22;60945;48.516;-2.768;2023-10-19T04:01:55;15.80;94.50
72814;DHT22;60945;48.516;-2.768;2023-10-19T04:04:21;15.90;93.60
72814;DHT22;60945;48.516;-2.768;2023-10-19T04:06:47;15.80;93.30
72814;DHT22;60945;48.516;-2.768;2023-10-19T04:09:14;15.90;93.20
72814;DHT22;60945;48.516;-2.768;2023-10-19T04:11:43;16.00;92.40
72814;DHT22;60945;48.516;-2.768;2023-10-19T04:14:15;16.00;92.00
72814;DHT22;60945;48.516;-2.768;2023-10-19T04:16:41;16.00;92.40
72814;DHT22;60945;48.516;-2.768;2023-10-19T04:19:11;15.90;92.70
72814;DHT22;60945;48.516;-2.768;2023-10-19T04:21:37;15.90;93.00
72814;DHT22;60945;48.516;-2.768;2023-10-19T04:24:05;15.90;92.40
72814;DHT22;60945;48.516;-2.768;2023-10-19T04:26:33;15.90;92.50
72814;DHT22;60945;48.516;-2.768;2023-10-19T04:29:03;15.90;92.80
72814;DHT22;60945;48.516;-2.768;2023-10-19T04:31:35;16.00;92.00
72814;DHT22;60945;48.516;-2.768;2023-10-19T04:34:05;16.00;91.90
72814;DHT22;60945;48.516;-2.768;2023-10-19T04:36:35;16.10;91.00
72814;DHT22;60945;48.516;-2.768;2023-10-19T04:39:01;16.10;91.10
72814;DHT22;60945;48.516;-2.768;2023-10-19T04:41:27;16.10;91.00
72814;DHT22;60945;48.516;-2.768;2023-10-19T04:43:53;16.10;91.20
72814;DHT22;60945;48.516;-2.768;2023-10-19T04:46:20;16.00;91.70
72814;DHT22;60945;48.516;-2.768;2023-10-19T04:48:46;16.10;91.20
72814;DHT22;60945;48.516;-2.768;2023-10-19T04:51:12;16.10;90.80
72814;DHT22;60945;48.516;-2.768;2023-10-19T04:53:38;16.10;91.40
72814;DHT22;60945;48.516;-2.768;2023-10-19T04:56:07;15.90;91.70
72814;DHT22;60945;48.516;-2.768;2023-10-19T04:58:34;15.80;92.20
72814;DHT22;60945;48.516;-2.768;2023-10-19T05:01:00;15.90;92.20
72814;DHT22;60945;48.516;-2.768;2023-10-19T05:03:29;15.90;92.20
72814;DHT22;60945;48.516;-2.768;2023-10-19T05:05:55;15.90;92.50
72814;DHT22;60945;48.516;-2.768;2023-10-19T05:08:25;15.90;92.50
72814;DHT22;60945;48.516;-2.768;2023-10-19T05:10:54;16.00;92.10
72814;DHT22;60945;48.516;-2.768;2023-10-19T05:13:24;16.00;91.90
72814;DHT22;60945;48.516;-2.768;2023-10-19T05:15:54;15.90;92.50
72814;DHT22;60945;48.516;-2.768;2023-10-19T05:18:23;15.90;92.70
72814;DHT22;60945;48.516;-2.768;2023-10-19T05:20:49;15.80;92.90
72814;DHT22;60945;48.516;-2.768;2023-10-19T05:23:16;15.80;92.50
72814;DHT22;60945;48.516;-2.768;2023-10-19T05:25:42;15.70;93.20
72814;DHT22;60945;48.516;-2.768;2023-10-19T05:28:07;15.80;93.70
72814;DHT22;60945;48.516;-2.768;2023-10-19T05:30:35;15.80;93.20
72814;DHT22;60945;48.516;-2.768;2023-10-19T05:33:01;15.70;93.50
72814;DHT22;60945;48.516;-2.768;2023-10-19T05:35:30;15.60;94.00
72814;DHT22;60945;48.516;-2.768;2023-10-19T05:37:56;15.60;94.20
72814;DHT22;60945;48.516;-2.768;2023-10-19T05:40:25;15.60;94.50
72814;DHT22;60945;48.516;-2.768;2023-10-19T05:42:57;15.60;95.00
72814;DHT22;60945;48.516;-2.768;2023-10-19T05:45:23;15.60;94.70
72814;DHT22;60945;48.516;-2.768;2023-10-19T05:47:50;15.70;94.80
72814;DHT22;60945;48.516;-2.768;2023-10-19T05:50:15;15.70;94.70
72814;DHT22;60945;48.516;-2.768;2023-10-19T05:52:42;15.80;94.60
72814;DHT22;60945;48.516;-2.768;2023-10-19T05:55:09;15.70;94.40
72814;DHT22;60945;48.516;-2.768;2023-10-19T05:57:37;15.70;94.90
72814;DHT22;60945;48.516;-2.768;2023-10-19T06:00:09;15.80;94.50
72814;DHT22;60945;48.516;-2.768;2023-10-19T06:02:43;15.80;94.40
72814;DHT22;60945;48.516;-2.768;2023-10-19T06:05:10;15.90;93.90
72814;DHT22;60945;48.516;-2.768;2023-10-19T06:07:36;16.00;93.30
72814;DHT22;60945;48.516;-2.768;2023-10-19T06:10:02;16.10;93.20
72814;DHT22;60945;48.516;-2.768;2023-10-19T06:12:39;16.10;93.50
72814;DHT22;60945;48.516;-2.768;2023-10-19T06:15:05;16.00;93.90
72814;DHT22;60945;48.516;-2.768;2023-10-19T06:17:31;16.00;94.30
72814;DHT22;60945;48.516;-2.768;2023-10-19T06:19:56;16.00;94.90
72814;DHT22;60945;48.516;-2.768;2023-10-19T06:22:22;15.90;95.60
72814;DHT22;60945;48.516;-2.768;2023-10-19T06:24:47;15.90;96.40
72814;DHT22;60945;48.516;-2.768;2023-10-19T06:27:14;15.80;96.60
72814;DHT22;60945;48.516;-2.768;2023-10-19T06:29:39;15.90;96.50
72814;DHT22;60945;48.516;-2.768;2023-10-19T06:32:05;15.90;96.30
72814;DHT22;60945;48.516;-2.768;2023-10-19T06:34:30;15.90;96.30
72814;DHT22;60945;48.516;-2.768;2023-10-19T06:36:57;15.80;96.30
72814;DHT22;60945;48.516;-2.768;2023-10-19T06:39:24;15.90;96.30
72814;DHT22;60945;48.516;-2.768;2023-10-19T06:41:50;15.90;95.90
72814;DHT22;60945;48.516;-2.768;2023-10-19T06:44:15;15.90;95.80
72814;DHT22;60945;48.516;-2.768;2023-10-19T06:46:42;15.90;95.30
72814;DHT22;60945;48.516;-2.768;2023-10-19T06:49:09;15.90;95.10
72814;DHT22;60945;48.516;-2.768;2023-10-19T06:51:34;15.90;94.80
72814;DHT22;60945;48.516;-2.768;2023-10-19T06:54:02;15.90;94.90
72814;DHT22;60945;48.516;-2.768;2023-10-19T06:56:28;15.90;94.80
72814;DHT22;60945;48.516;-2.768;2023-10-19T06:58:54;15.90;94.90
72814;DHT22;60945;48.516;-2.768;2023-10-19T07:01:20;15.90;94.30
72814;DHT22;60945;48.516;-2.768;2023-10-19T07:03:51;15.90;94.00
72814;DHT22;60945;48.516;-2.768;2023-10-19T07:06:19;15.80;94.20
72814;DHT22;60945;48.516;-2.768;2023-10-19T07:08:45;15.80;94.40
72814;DHT22;60945;48.516;-2.768;2023-10-19T07:11:11;15.80;94.30
72814;DHT22;60945;48.516;-2.768;2023-10-19T07:13:37;15.80;94.40
72814;DHT22;60945;48.516;-2.768;2023-10-19T07:16:05;15.70;94.10
72814;DHT22;60945;48.516;-2.768;2023-10-19T07:18:31;15.70;94.50
72814;DHT22;60945;48.516;-2.768;2023-10-19T07:20:57;15.70;94.70
72814;DHT22;60945;48.516;-2.768;2023-10-19T07:23:29;15.70;94.80
72814;DHT22;60945;48.516;-2.768;2023-10-19T07:25:56;15.80;94.50
72814;DHT22;60945;48.516;-2.768;2023-10-19T07:28:25;15.80;94.40
72814;DHT22;60945;48.516;-2.768;2023-10-19T07:30:52;15.90;93.70
72814;DHT22;60945;48.516;-2.768;2023-10-19T07:33:18;16.10;92.90
72814;DHT22;60945;48.516;-2.768;2023-10-19T07:35:49;16.10;92.50
72814;DHT22;60945;48.516;-2.768;2023-10-19T07:38:22;16.20;92.20
72814;DHT22;60945;48.516;-2.768;2023-10-19T07:40:48;16.20;91.90
72814;DHT22;60945;48.516;-2.768;2023-10-19T07:43:14;16.30;91.80
72814;DHT22;60945;48.516;-2.768;2023-10-19T07:45:40;16.40;91.20
72814;DHT22;60945;48.516;-2.768;2023-10-19T07:48:06;16.40;91.40
72814;DHT22;60945;48.516;-2.768;2023-10-19T07:50:37;16.40;91.80
72814;DHT22;60945;48.516;-2.768;2023-10-19T07:53:03;16.30;92.30
72814;DHT22;60945;48.516;-2.768;2023-10-19T07:55:30;16.40;92.50
72814;DHT22;60945;48.516;-2.768;2023-10-19T07:57:57;16.70;91.00
72814;DHT22;60945;48.516;-2.768;2023-10-19T08:00:26;17.00;88.50
72814;DHT22;60945;48.516;-2.768;2023-10-19T08:02:54;17.30;86.10
72814;DHT22;60945;48.516;-2.768;2023-10-19T08:05:21;17.50;85.20
72814;DHT22;60945;48.516;-2.768;2023-10-19T08:07:47;17.70;83.10
72814;DHT22;60945;48.516;-2.768;2023-10-19T08:10:15;17.70;83.10
72814;DHT22;60945;48.516;-2.768;2023-10-19T08:12:41;17.60;83.40
72814;DHT22;60945;48.516;-2.768;2023-10-19T08:15:09;17.60;83.70
72814;DHT22;60945;48.516;-2.768;2023-10-19T08:17:40;17.70;82.70
72814;DHT22;60945;48.516;-2.768;2023-10-19T08:20:12;18.00;82.40
72814;DHT22;60945;48.516;-2.768;2023-10-19T08:22:54;18.90;79.00
72814;DHT22;60945;48.516;-2.768;2023-10-19T08:25:22;19.00;80.80
72814;DHT22;60945;48.516;-2.768;2023-10-19T08:27:48;19.00;80.20
72814;DHT22;60945;48.516;-2.768;2023-10-19T08:30:22;19.30;78.20
72814;DHT22;60945;48.516;-2.768;2023-10-19T08:32:49;19.40;76.60
72814;DHT22;60945;48.516;-2.768;2023-10-19T08:35:18;19.70;75.40
72814;DHT22;60945;48.516;-2.768;2023-10-19T08:37:46;20.20;74.50
72814;DHT22;60945;48.516;-2.768;2023-10-19T08:40:13;20.70;70.90
72814;DHT22;60945;48.516;-2.768;2023-10-19T08:42:41;20.80;71.30
72814;DHT22;60945;48.516;-2.768;2023-10-19T08:45:08;20.60;70.80
72814;DHT22;60945;48.516;-2.768;2023-10-19T08:47:43;20.00;72.50
72814;DHT22;60945;48.516;-2.768;2023-10-19T08:50:13;19.30;74.80
72814;DHT22;60945;48.516;-2.768;2023-10-19T08:52:41;18.60;78.50
72814;DHT22;60945;48.516;-2.768;2023-10-19T08:55:08;18.50;79.90
72814;DHT22;60945;48.516;-2.768;2023-10-19T08:57:36;18.10;82.60
72814;DHT22;60945;48.516;-2.768;2023-10-19T09:00:04;17.60;86.00
72814;DHT22;60945;48.516;-2.768;2023-10-19T09:02:32;17.40;89.20
72814;DHT22;60945;48.516;-2.768;2023-10-19T09:04:58;17.00;93.00
72814;DHT22;60945;48.516;-2.768;2023-10-19T09:07:25;16.90;95.70
72814;DHT22;60945;48.516;-2.768;2023-10-19T09:09:56;16.90;94.40
72814;DHT22;60945;48.516;-2.768;2023-10-19T09:12:22;16.60;91.00
72814;DHT22;60945;48.516;-2.768;2023-10-19T09:14:48;16.60;90.00
72814;DHT22;60945;48.516;-2.768;2023-10-19T09:17:15;16.60;89.60
72814;DHT22;60945;48.516;-2.768;2023-10-19T09:19:44;16.50;89.20
72814;DHT22;60945;48.516;-2.768;2023-10-19T09:22:12;16.70;88.80
72814;DHT22;60945;48.516;-2.768;2023-10-19T09:24:49;17.00;88.50
72814;DHT22;60945;48.516;-2.768;2023-10-19T09:27:21;17.40;87.00
72814;DHT22;60945;48.516;-2.768;2023-10-19T09:29:50;17.60;85.80
72814;DHT22;60945;48.516;-2.768;2023-10-19T09:32:18;17.70;84.70
72814;DHT22;60945;48.516;-2.768;2023-10-19T09:34:45;17.70;84.60
72814;DHT22;60945;48.516;-2.768;2023-10-19T09:37:14;17.60;84.50
72814;DHT22;60945;48.516;-2.768;2023-10-19T09:39:41;17.50;84.80
72814;DHT22;60945;48.516;-2.768;2023-10-19T09:42:09;17.50;85.70
72814;DHT22;60945;48.516;-2.768;2023-10-19T09:44:45;17.40;85.30
72814;DHT22;60945;48.516;-2.768;2023-10-19T09:47:26;17.40;84.50
72814;DHT22;60945;48.516;-2.768;2023-10-19T09:49:52;17.40;83.00
72814;DHT22;60945;48.516;-2.768;2023-10-19T09:52:18;17.60;83.30
72814;DHT22;60945;48.516;-2.768;2023-10-19T09:57:53;18.00;81.30
72814;DHT22;60945;48.516;-2.768;2023-10-19T10:00:21;18.40;79.50
72814;DHT22;60945;48.516;-2.768;2023-10-19T10:02:50;18.60;78.80
72814;DHT22;60945;48.516;-2.768;2023-10-19T10:10:44;18.50;78.80
72814;DHT22;60945;48.516;-2.768;2023-10-19T10:15:57;18.40;78.00
72814;DHT22;60945;48.516;-2.768;2023-10-19T10:18:26;18.30;78.60
72814;DHT22;60945;48.516;-2.768;2023-10-19T10:23:59;18.40;77.70
72814;DHT22;60945;48.516;-2.768;2023-10-19T10:26:26;18.40;78.10
72814;DHT22;60945;48.516;-2.768;2023-10-19T10:29:14;18.50;77.40
72814;DHT22;60945;48.516;-2.768;2023-10-19T10:31:46;18.30;77.30
72814;DHT22;60945;48.516;-2.768;2023-10-19T10:37:04;18.30;77.20
72814;DHT22;60945;48.516;-2.768;2023-10-19T10:39:33;18.20;77.50
72814;DHT22;60945;48.516;-2.768;2023-10-19T10:42:05;18.20;78.30
72814;DHT22;60945;48.516;-2.768;2023-10-19T10:44:38;18.30;76.80
72814;DHT22;60945;48.516;-2.768;2023-10-19T10:47:18;18.20;76.70
72814;DHT22;60945;48.516;-2.768;2023-10-19T10:49:55;18.10;77.20
72814;DHT22;60945;48.516;-2.768;2023-10-19T10:52:31;18.00;77.00
72814;DHT22;60945;48.516;-2.768;2023-10-19T10:55:17;18.10;76.80
72814;DHT22;60945;48.516;-2.768;2023-10-19T10:57:44;18.10;76.60
72814;DHT22;60945;48.516;-2.768;2023-10-19T11:00:14;18.00;77.60
72814;DHT22;60945;48.516;-2.768;2023-10-19T11:02:45;18.30;76.90
72814;DHT22;60945;48.516;-2.768;2023-10-19T11:05:16;18.50;76.10
72814;DHT22;60945;48.516;-2.768;2023-10-19T11:08:02;18.40;76.80
72814;DHT22;60945;48.516;-2.768;2023-10-19T11:10:29;18.20;76.40
72814;DHT22;60945;48.516;-2.768;2023-10-19T11:13:07;18.20;77.00
72814;DHT22;60945;48.516;-2.768;2023-10-19T11:15:34;18.30;76.40
72814;DHT22;60945;48.516;-2.768;2023-10-19T11:18:00;18.30;76.40
72814;DHT22;60945;48.516;-2.768;2023-10-19T11:20:27;18.40;76.00
72814;DHT22;60945;48.516;-2.768;2023-10-19T11:22:53;18.30;75.50
72814;DHT22;60945;48.516;-2.768;2023-10-19T11:25:25;18.40;75.00
72814;DHT22;60945;48.516;-2.768;2023-10-19T11:27:58;18.40;75.40
72814;DHT22;60945;48.516;-2.768;2023-10-19T11:30:29;18.40;75.00
72814;DHT22;60945;48.516;-2.768;2023-10-19T11:32:55;18.40;75.10
72814;DHT22;60945;48.516;-2.768;2023-10-19T11:35:28;18.40;75.70
72814;DHT22;60945;48.516;-2.768;2023-10-19T11:37:56;18.50;75.10
72814;DHT22;60945;48.516;-2.768;2023-10-19T11:40:23;18.40;75.60
72814;DHT22;60945;48.516;-2.768;2023-10-19T11:42:50;18.30;76.40
72814;DHT22;60945;48.516;-2.768;2023-10-19T11:45:16;18.30;75.90
72814;DHT22;60945;48.516;-2.768;2023-10-19T11:47:43;18.10;76.50
72814;DHT22;60945;48.516;-2.768;2023-10-19T11:50:09;17.80;78.00
72814;DHT22;60945;48.516;-2.768;2023-10-19T11:52:37;17.60;78.70
72814;DHT22;60945;48.516;-2.768;2023-10-19T11:55:03;17.60;79.30
72814;DHT22;60945;48.516;-2.768;2023-10-19T11:57:31;17.80;79.10
72814;DHT22;60945;48.516;-2.768;2023-10-19T11:59:57;17.90;78.60
72814;DHT22;60945;48.516;-2.768;2023-10-19T12:02:24;17.70;79.10
72814;DHT22;60945;48.516;-2.768;2023-10-19T12:04:50;17.80;79.20
72814;DHT22;60945;48.516;-2.768;2023-10-19T12:07:16;17.80;79.00
72814;DHT22;60945;48.516;-2.768;2023-10-19T12:09:41;17.70;79.70
72814;DHT22;60945;48.516;-2.768;2023-10-19T12:12:07;17.80;79.10
72814;DHT22;60945;48.516;-2.768;2023-10-19T12:14:35;17.70;78.90
72814;DHT22;60945;48.516;-2.768;2023-10-19T12:17:02;17.70;79.20
72814;DHT22;60945;48.516;-2.768;2023-10-19T12:19:31;17.80;78.30
72814;DHT22;60945;48.516;-2.768;2023-10-19T12:21:57;17.80;78.50
72814;DHT22;60945;48.516;-2.768;2023-10-19T12:24:23;17.90;78.20
72814;DHT22;60945;48.516;-2.768;2023-10-19T12:26:49;17.80;77.90
72814;DHT22;60945;48.516;-2.768;2023-10-19T12:29:16;17.80;78.10
72814;DHT22;60945;48.516;-2.768;2023-10-19T12:31:46;17.80;78.30
72814;DHT22;60945;48.516;-2.768;2023-10-19T12:34:12;18.00;77.90
72814;DHT22;60945;48.516;-2.768;2023-10-19T12:36:42;18.00;77.00
72814;DHT22;60945;48.516;-2.768;2023-10-19T12:39:10;18.00;76.90
72814;DHT22;60945;48.516;-2.768;2023-10-19T12:41:56;18.10;76.80
72814;DHT22;60945;48.516;-2.768;2023-10-19T12:44:22;17.90;77.40
72814;DHT22;60945;48.516;-2.768;2023-10-19T12:46:50;18.00;77.50
72814;DHT22;60945;48.516;-2.768;2023-10-19T12:49:18;18.10;77.00
72814;DHT22;60945;48.516;-2.768;2023-10-19T12:51:46;18.00;76.70
72814;DHT22;60945;48.516;-2.768;2023-10-19T12:54:13;18.10;76.40
72814;DHT22;60945;48.516;-2.768;2023-10-19T12:56:39;18.10;76.00
72814;DHT22;60945;48.516;-2.768;2023-10-19T12:59:05;18.00;76.80
72814;DHT22;60945;48.516;-2.768;2023-10-19T13:01:36;18.00;76.10
72814;DHT22;60945;48.516;-2.768;2023-10-19T13:04:02;18.10;75.30
72814;DHT22;60945;48.516;-2.768;2023-10-19T13:06:39;18.00;76.00
72814;DHT22;60945;48.516;-2.768;2023-10-19T13:09:05;18.00;75.80
72814;DHT22;60945;48.516;-2.768;2023-10-19T13:11:34;18.00;76.40
72814;DHT22;60945;48.516;-2.768;2023-10-19T13:14:00;18.00;76.70
72814;DHT22;60945;48.516;-2.768;2023-10-19T13:16:31;18.00;77.70
72814;DHT22;60945;48.516;-2.768;2023-10-19T13:18:57;18.00;77.00
72814;DHT22;60945;48.516;-2.768;2023-10-19T13:21:23;17.80;77.60
72814;DHT22;60945;48.516;-2.768;2023-10-19T13:23:53;17.80;78.00
72814;DHT22;60945;48.516;-2.768;2023-10-19T13:26:19;17.90;77.70
72814;DHT22;60945;48.516;-2.768;2023-10-19T13:28:45;18.00;77.70
72814;DHT22;60945;48.516;-2.768;2023-10-19T13:31:11;18.00;77.10
72814;DHT22;60945;48.516;-2.768;2023-10-19T13:33:39;18.00;76.70
72814;DHT22;60945;48.516;-2.768;2023-10-19T13:36:07;18.10;76.70
72814;DHT22;60945;48.516;-2.768;2023-10-19T13:38:33;18.10;76.60
72814;DHT22;60945;48.516;-2.768;2023-10-19T13:40:59;18.30;75.60
72814;DHT22;60945;48.516;-2.768;2023-10-19T13:43:24;18.00;76.00
72814;DHT22;60945;48.516;-2.768;2023-10-19T13:45:50;17.80;76.30
72814;DHT22;60945;48.516;-2.768;2023-10-19T13:48:18;17.70;75.10
72814;DHT22;60945;48.516;-2.768;2023-10-19T13:50:46;17.60;75.50
72814;DHT22;60945;48.516;-2.768;2023-10-19T13:53:16;17.80;75.00
72814;DHT22;60945;48.516;-2.768;2023-10-19T13:55:42;17.90;74.10
72814;DHT22;60945;48.516;-2.768;2023-10-19T13:58:08;17.90;74.00
72814;DHT22;60945;48.516;-2.768;2023-10-19T14:00:37;17.70;74.90
72814;DHT22;60945;48.516;-2.768;2023-10-19T14:03:13;17.70;74.80
72814;DHT22;60945;48.516;-2.768;2023-10-19T14:05:44;17.50;76.00
72814;DHT22;60945;48.516;-2.768;2023-10-19T14:08:13;17.30;71.20
72814;DHT22;60945;48.516;-2.768;2023-10-19T14:10:40;17.20;72.20
72814;DHT22;60945;48.516;-2.768;2023-10-19T14:13:09;17.10;72.10
72814;DHT22;60945;48.516;-2.768;2023-10-19T14:15:37;17.00;73.00
72814;DHT22;60945;48.516;-2.768;2023-10-19T14:18:03;17.10;72.60
72814;DHT22;60945;48.516;-2.768;2023-10-19T14:20:30;17.30;72.40
72814;DHT22;60945;48.516;-2.768;2023-10-19T14:22:56;17.50;72.30
72814;DHT22;60945;48.516;-2.768;2023-10-19T14:25:22;17.30;72.70
72814;DHT22;60945;48.516;-2.768;2023-10-19T14:27:51;17.40;73.20
72814;DHT22;60945;48.516;-2.768;2023-10-19T14:30:21;17.40;74.30
72814;DHT22;60945;48.516;-2.768;2023-10-19T14:32:48;17.60;73.40
72814;DHT22;60945;48.516;-2.768;2023-10-19T14:35:15;18.30;71.70
72814;DHT22;60945;48.516;-2.768;2023-10-19T14:37:46;19.80;67.80
72814;DHT22;60945;48.516;-2.768;2023-10-19T14:40:18;22.90;57.90
72814;DHT22;60945;48.516;-2.768;2023-10-19T14:42:46;24.10;54.00
72814;DHT22;60945;48.516;-2.768;2023-10-19T14:45:16;24.40;52.50
72814;DHT22;60945;48.516;-2.768;2023-10-19T14:47:52;24.30;52.80
72814;DHT22;60945;48.516;-2.768;2023-10-19T14:50:21;24.00;53.70
72814;DHT22;60945;48.516;-2.768;2023-10-19T14:52:50;23.30;55.10
72814;DHT22;60945;48.516;-2.768;2023-10-19T14:55:17;22.20;58.60
72814;DHT22;60945;48.516;-2.768;2023-10-19T14:57:44;21.30;61.40
72814;DHT22;60945;48.516;-2.768;2023-10-19T15:00:12;20.40;64.00
72814;DHT22;60945;48.516;-2.768;2023-10-19T15:02:45;19.50;67.10
72814;DHT22;60945;48.516;-2.768;2023-10-19T15:05:11;19.40;67.00
72814;DHT22;60945;48.516;-2.768;2023-10-19T15:07:47;19.40;67.20
72814;DHT22;60945;48.516;-2.768;2023-10-19T15:10:27;19.70;66.10
72814;DHT22;60945;48.516;-2.768;2023-10-19T15:12:56;19.50;66.30
72814;DHT22;60945;48.516;-2.768;2023-10-19T15:15:28;19.60;66.90
72814;DHT22;60945;48.516;-2.768;2023-10-19T15:17:55;19.50;67.00
72814;DHT22;60945;48.516;-2.768;2023-10-19T15:20:24;19.40;68.20
72814;DHT22;60945;48.516;-2.768;2023-10-19T15:22:51;19.30;69.00
72814;DHT22;60945;48.516;-2.768;2023-10-19T15:25:16;19.40;69.20
72814;DHT22;60945;48.516;-2.768;2023-10-19T15:27:47;19.20;69.60
72814;DHT22;60945;48.516;-2.768;2023-10-19T15:30:14;18.90;70.40
72814;DHT22;60945;48.516;-2.768;2023-10-19T15:32:41;18.70;70.80
72814;DHT22;60945;48.516;-2.768;2023-10-19T15:35:08;18.80;71.10
72814;DHT22;60945;48.516;-2.768;2023-10-19T15:37:37;18.60;71.70
72814;DHT22;60945;48.516;-2.768;2023-10-19T15:40:04;18.40;72.60
72814;DHT22;60945;48.516;-2.768;2023-10-19T15:42:30;18.30;72.90
72814;DHT22;60945;48.516;-2.768;2023-10-19T15:44:56;18.20;73.20
72814;DHT22;60945;48.516;-2.768;2023-10-19T15:47:22;18.10;73.20